Time,TemperatureF,DewpointF,PressureIn,WindDirection,WindDirectionDegrees,WindSpeedMPH,WindSpeedGustMPH,Humidity,HourlyPrecipIn,Conditions,Clouds,dailyrainin,SolarRadiationWatts/m^2,SoftwareType,DateUTC
2013-04-12 00:02:00,39.6,38.6,29.39,ESE,102,5.0,5.0,96,0.00,RA,,0.00,0.0,WeatherDisplay:10.37,2013-04-11 23:02:00,
2013-04-12 00:07:00,39.5,38.5,29.39,SSE,155,6.9,6.9,96,0.00,RA,,0.00,0.0,WeatherDisplay:10.37,2013-04-11 23:07:00,
2013-04-12 00:12:00,39.5,38.7,29.39,SE,145,5.8,5.8,97,0.00,CLR,,0.00,0.0,WeatherDisplay:10.37,2013-04-11 23:12:00,
2013-04-12 00:18:00,39.3,38.5,29.39,ESE,107,8.1,8.1,97,0.00,CLR,,0.00,0.0,WeatherDisplay:10.37,2013-04-11 23:18:00,
2013-04-12 00:23:00,39.2,38.4,29.39,ESE,107,6.9,6.9,97,0.01,RA,,0.01,0.0,WeatherDisplay:10.37,2013-04-11 23:23:00,
2013-04-12 00:28:00,39.2,38.4,29.39,SSE,164,8.1,8.1,97,0.01,RA,,0.01,0.0,WeatherDisplay:10.37,2013-04-11 23:28:00,
2013-04-12 00:33:00,39.1,38.3,29.39,SSE,154,6.9,6.9,97,0.01,CLR,,0.01,0.0,WeatherDisplay:10.37,2013-04-11 23:33:00,
2013-04-12 00:38:00,38.9,38.4,29.39,SE,141,5.0,5.0,98,0.01,CLR,,0.02,0.0,WeatherDisplay:10.37,2013-04-11 23:38:00,
2013-04-12 00:43:00,38.9,38.4,29.39,ESE,104,3.5,3.5,98,0.02,RA,,0.02,0.0,WeatherDisplay:10.37,2013-04-11 23:43:00,
2013-04-12 00:48:00,38.8,38.3,29.39,ESE,116,6.9,6.9,98,0.02,RA,,0.02,0.0,WeatherDisplay:10.37,2013-04-11 23:48:00,
2013-04-12 00:54:00,38.8,38.3,29.39,SSE,151,8.1,8.1,98,0.02,CLR,,0.02,0.0,WeatherDisplay:10.37,2013-04-11 23:54:00,
2013-04-12 00:59:00,38.6,38.1,29.39,SE,144,6.9,6.9,98,0.03,RA,,0.03,0.0,WeatherDisplay:10.37,2013-04-11 23:59:00,
2013-04-12 01:04:00,38.5,38.0,29.39,East,95,6.9,6.9,98,0.03,RA,,0.03,0.0,WeatherDisplay:10.37,2013-04-12 00:04:00,
2013-04-12 01:09:00,38.3,37.8,29.39,SE,141,6.9,6.9,98,0.03,,,0.03,0.0,WeatherDisplay:10.37,2013-04-12 00:09:00,
2013-04-12 01:14:00,38.2,37.9,29.39,SE,140,10.4,10.4,99,0.03,CLR,,0.03,0.0,WeatherDisplay:10.37,2013-04-12 00:14:00,
2013-04-12 01:19:00,38.2,37.9,29.39,SSE,161,8.0,8.0,99,0.04,RA,,0.04,0.0,WeatherDisplay:10.37,2013-04-12 00:19:00,
2013-04-12 01:25:00,38.2,37.9,29.38,SSE,167,6.0,6.0,99,0.03,RA,,0.04,0.0,WeatherDisplay:10.37,2013-04-12 00:25:00,
2013-04-12 01:30:00,38.2,37.9,29.38,SE,141,3.5,3.5,99,0.03,CLR,,0.04,0.0,WeatherDisplay:10.37,2013-04-12 00:30:00,
2013-04-12 01:35:00,38.2,37.9,29.39,SSE,162,5.0,5.0,99,0.03,,,0.04,0.0,WeatherDisplay:10.37,2013-04-12 00:35:00,
2013-04-12 01:40:00,38.0,37.7,29.38,SE,140,3.5,3.5,99,0.03,RA,,0.05,0.0,WeatherDisplay:10.37,2013-04-12 00:40:00,
2013-04-12 01:46:00,38.0,37.7,29.38,SSE,155,5.8,5.8,99,0.03,RA,,0.05,0.0,WeatherDisplay:10.37,2013-04-12 00:46:00,
2013-04-12 01:51:00,38.0,37.7,29.38,SSE,154,6.0,6.0,99,0.03,,,0.05,0.0,WeatherDisplay:10.37,2013-04-12 00:51:00,
2013-04-12 01:56:00,37.9,37.6,29.38,South,179,5.8,5.8,99,0.04,RA,,0.06,0.0,WeatherDisplay:10.37,2013-04-12 00:56:00,
2013-04-12 02:01:00,37.8,37.8,29.38,SE,143,5.8,5.8,100,0.03,RA,,0.06,0.0,WeatherDisplay:10.37,2013-04-12 01:01:00,
2013-04-12 02:07:00,37.8,37.8,29.38,SE,131,5.8,5.8,100,0.04,RA,,0.07,0.0,WeatherDisplay:10.37,2013-04-12 01:07:00,
2013-04-12 02:12:00,37.6,37.6,29.38,ESE,110,3.5,3.5,100,0.04,RA,,0.07,0.0,WeatherDisplay:10.37,2013-04-12 01:12:00,
2013-04-12 02:17:00,37.6,37.6,29.38,SE,138,4.6,4.6,100,0.03,CLR,,0.07,0.0,WeatherDisplay:10.37,2013-04-12 01:17:00,
2013-04-12 02:22:00,37.6,37.6,29.38,SE,144,5.8,5.8,100,0.03,,,0.07,0.0,WeatherDisplay:10.37,2013-04-12 01:22:00,
2013-04-12 02:27:00,37.6,37.6,29.38,SSE,152,5.8,5.8,100,0.03,,,0.07,0.0,WeatherDisplay:10.37,2013-04-12 01:27:00,
2013-04-12 02:32:00,37.6,37.6,29.38,ESE,123,6.9,6.9,100,0.03,,,0.07,0.0,WeatherDisplay:10.37,2013-04-12 01:32:00,
2013-04-12 02:37:00,37.3,37.3,29.38,SE,124,5.8,5.8,100,0.03,,,0.07,0.0,WeatherDisplay:10.37,2013-04-12 01:37:00,
2013-04-12 02:42:00,37.2,37.2,29.38,SE,131,6.9,6.9,100,0.03,RA,,0.08,0.0,WeatherDisplay:10.37,2013-04-12 01:42:00,
2013-04-12 02:47:00,37.0,37.0,29.38,SE,136,5.8,5.8,100,0.03,RA,,0.08,0.0,WeatherDisplay:10.37,2013-04-12 01:47:00,
2013-04-12 02:53:00,37.0,37.0,29.38,SSE,154,4.6,4.6,100,0.02,CLR,,0.08,0.0,WeatherDisplay:10.37,2013-04-12 01:53:00,
2013-04-12 02:58:00,37.0,37.0,29.38,SE,144,3.5,3.5,100,0.02,,,0.08,0.0,WeatherDisplay:10.37,2013-04-12 01:58:00,
2013-04-12 03:03:00,37.0,37.0,29.38,SE,127,5.8,5.8,100,0.01,,,0.08,0.0,WeatherDisplay:10.37,2013-04-12 02:03:00,
2013-04-12 03:08:00,37.0,37.0,29.38,East,100,4.6,4.6,100,0.01,,,0.08,0.0,WeatherDisplay:10.37,2013-04-12 02:08:00,
2013-04-12 03:13:00,37.0,37.0,29.37,SE,138,6.9,6.9,100,0.01,,,0.08,0.0,WeatherDisplay:10.37,2013-04-12 02:13:00,
2013-04-12 03:18:00,36.9,36.9,29.38,ESE,106,4.6,4.6,100,0.01,,,0.08,0.0,WeatherDisplay:10.37,2013-04-12 02:18:00,
2013-04-12 03:23:00,36.9,36.9,29.38,SE,140,5.8,5.8,100,0.01,,,0.08,0.0,WeatherDisplay:10.37,2013-04-12 02:23:00,
2013-04-12 03:28:00,36.9,36.9,29.37,SE,144,5.8,5.8,100,0.01,,,0.08,0.0,WeatherDisplay:10.37,2013-04-12 02:28:00,
2013-04-12 03:34:00,36.9,36.9,29.37,SE,127,5.8,5.8,100,0.02,RA,,0.09,0.0,WeatherDisplay:10.37,2013-04-12 02:34:00,
2013-04-12 03:39:00,36.9,36.9,29.37,ESE,121,5.8,5.8,100,0.02,RA,,0.09,0.0,WeatherDisplay:10.37,2013-04-12 02:39:00,
2013-04-12 03:44:00,36.9,36.9,29.37,SSE,168,6.9,6.9,100,0.01,CLR,,0.09,0.0,WeatherDisplay:10.37,2013-04-12 02:44:00,
2013-04-12 03:49:00,36.9,36.9,29.37,SE,137,6.9,6.9,100,0.01,,,0.09,0.0,WeatherDisplay:10.37,2013-04-12 02:49:00,
2013-04-12 03:54:00,36.9,36.9,29.37,ESE,119,6.0,6.0,100,0.01,,,0.09,0.0,WeatherDisplay:10.37,2013-04-12 02:54:00,
2013-04-12 04:00:00,36.9,36.9,29.37,SE,137,8.1,8.1,100,0.01,,,0.09,0.0,WeatherDisplay:10.37,2013-04-12 03:00:00,
2013-04-12 04:05:00,36.9,36.9,29.37,ESE,120,5.8,5.8,100,0.01,,,0.09,0.0,WeatherDisplay:10.37,2013-04-12 03:05:00,
2013-04-12 04:10:00,36.9,36.9,29.37,ESE,119,5.8,5.8,100,0.01,,,0.09,0.0,WeatherDisplay:10.37,2013-04-12 03:10:00,
2013-04-12 04:16:00,36.9,36.9,29.37,East,92,8.1,8.1,100,0.01,,,0.09,0.0,WeatherDisplay:10.37,2013-04-12 03:16:00,
2013-04-12 04:22:00,36.9,36.9,29.37,SE,131,10.4,10.4,100,0.02,RA,,0.10,0.0,WeatherDisplay:10.37,2013-04-12 03:22:00,
2013-04-12 04:27:00,36.9,36.9,29.37,SE,136,5.8,5.8,100,0.02,,,0.10,0.0,WeatherDisplay:10.37,2013-04-12 03:27:00,
2013-04-12 04:32:00,36.9,36.9,29.37,SSE,161,5.8,5.8,100,0.01,CLR,,0.10,0.0,WeatherDisplay:10.37,2013-04-12 03:32:00,
2013-04-12 04:37:00,36.9,36.9,29.37,ESE,106,6.9,6.9,100,0.01,,,0.10,0.0,WeatherDisplay:10.37,2013-04-12 03:37:00,
2013-04-12 04:42:00,36.9,36.9,29.37,SSE,147,5.0,5.0,100,0.01,,,0.10,0.0,WeatherDisplay:10.37,2013-04-12 03:42:00,
2013-04-12 04:47:00,36.9,36.9,29.37,SSE,154,6.9,6.9,100,0.01,,,0.10,0.0,WeatherDisplay:10.37,2013-04-12 03:47:00,
2013-04-12 04:52:00,36.9,36.9,29.37,ESE,109,3.5,3.5,100,0.01,,,0.10,0.0,WeatherDisplay:10.37,2013-04-12 03:52:00,
2013-04-12 04:57:00,37.0,37.0,29.37,SE,133,5.8,5.8,100,0.01,,,0.10,0.0,WeatherDisplay:10.37,2013-04-12 03:57:00,
2013-04-12 05:00:00,37.0,37.0,29.37,SE,133,2.0,8.0,100,0.00,RA,,0.11,0.0,WeatherDisplay:10.37,2013-04-12 04:00:00,
2013-04-12 05:02:00,37.0,37.0,29.37,SSE,165,5.8,5.8,100,0.02,RA,,0.11,0.0,WeatherDisplay:10.37,2013-04-12 04:02:00,
2013-04-12 05:08:00,37.0,37.0,29.37,ESE,106,4.6,4.6,100,0.02,RA,,0.11,0.0,WeatherDisplay:10.37,2013-04-12 04:08:00,
2013-04-12 05:13:00,37.0,37.0,29.37,SE,131,4.6,4.6,100,0.02,CLR,,0.11,0.0,WeatherDisplay:10.37,2013-04-12 04:13:00,
2013-04-12 05:18:00,37.0,37.0,29.37,SE,124,4.6,4.6,100,0.01,,,0.11,0.0,WeatherDisplay:10.37,2013-04-12 04:18:00,
2013-04-12 05:23:00,37.2,37.2,29.37,SE,130,7.0,7.0,100,0.01,,,0.11,0.0,WeatherDisplay:10.37,2013-04-12 04:23:00,
2013-04-12 05:29:00,37.2,37.2,29.37,SSE,161,4.6,4.6,100,0.01,,,0.11,0.0,WeatherDisplay:10.37,2013-04-12 04:29:00,
2013-04-12 05:34:00,37.2,37.2,29.37,SE,127,5.8,5.8,100,0.01,,,0.11,0.0,WeatherDisplay:10.37,2013-04-12 04:34:00,
2013-04-12 05:39:00,37.2,37.2,29.38,SE,131,4.6,4.6,100,0.01,,,0.11,0.0,WeatherDisplay:10.37,2013-04-12 04:39:00,
2013-04-12 05:44:00,37.3,37.3,29.38,ESE,109,5.8,5.8,100,0.02,RA,,0.12,0.0,WeatherDisplay:10.37,2013-04-12 04:44:00,
2013-04-12 05:49:00,37.3,37.3,29.37,SE,130,3.5,3.5,100,0.02,RA,,0.12,0.0,WeatherDisplay:10.37,2013-04-12 04:49:00,
2013-04-12 05:54:00,37.3,37.3,29.38,SE,124,3.5,3.5,100,0.02,,,0.12,0.0,WeatherDisplay:10.37,2013-04-12 04:54:00,
2013-04-12 05:59:00,37.3,37.3,29.38,ESE,117,4.6,4.6,100,0.01,CLR,,0.12,0.0,WeatherDisplay:10.37,2013-04-12 04:59:00,
2013-04-12 06:05:00,37.3,37.3,29.38,SE,127,3.5,3.5,100,0.01,OVC,,0.12,0.0,WeatherDisplay:10.37,2013-04-12 05:05:00,
2013-04-12 06:10:00,37.3,37.3,29.38,East,93,2.3,2.3,100,0.01,OVC,,0.12,0.0,WeatherDisplay:10.37,2013-04-12 05:10:00,
2013-04-12 06:15:00,37.3,37.3,29.38,SE,141,5.8,5.8,100,0.01,OVC,,0.12,0.0,WeatherDisplay:10.37,2013-04-12 05:15:00,
2013-04-12 06:20:00,37.3,37.3,29.38,ESE,120,3.5,3.5,100,0.01,OVC,,0.12,0.0,WeatherDisplay:10.37,2013-04-12 05:20:00,
2013-04-12 06:25:00,37.3,37.3,29.38,SE,128,4.6,4.6,100,0.01,OVC,,0.12,0.0,WeatherDisplay:10.37,2013-04-12 05:25:00,
2013-04-12 06:30:00,37.3,37.3,29.38,ESE,120,8.1,8.1,100,0.01,OVC,,0.12,0.0,WeatherDisplay:10.37,2013-04-12 05:30:00,
2013-04-12 06:35:00,37.2,37.2,29.38,East,88,8.1,8.1,100,0.02,RA,,0.13,0.0,WeatherDisplay:10.37,2013-04-12 05:35:00,
2013-04-12 06:40:00,37.2,37.2,29.38,SE,124,4.6,4.6,100,0.02,RA,,0.13,5.0,WeatherDisplay:10.37,2013-04-12 05:40:00,
2013-04-12 06:45:00,37.2,37.2,29.38,SSE,154,4.6,4.6,100,0.01,OVC,,0.13,7.0,WeatherDisplay:10.37,2013-04-12 05:45:00,
2013-04-12 06:50:00,37.3,37.3,29.38,ESE,116,4.6,4.6,100,0.01,OVC,,0.13,5.0,WeatherDisplay:10.37,2013-04-12 05:50:00,
2013-04-12 06:55:00,37.3,37.3,29.38,South,179,5.8,5.8,100,0.02,RA,,0.14,7.0,WeatherDisplay:10.37,2013-04-12 05:55:00,
2013-04-12 07:00:00,37.3,37.3,29.38,ESE,112,4.6,4.6,100,0.02,RA,,0.14,11.0,WeatherDisplay:10.37,2013-04-12 06:00:00,
2013-04-12 07:05:00,37.3,37.3,29.38,ESE,119,5.8,5.8,100,0.02,OVC,,0.14,16.0,WeatherDisplay:10.37,2013-04-12 06:05:00,
2013-04-12 07:10:00,37.5,37.5,29.38,SE,128,4.6,4.6,100,0.02,OVC,,0.14,18.0,WeatherDisplay:10.37,2013-04-12 06:10:00,
2013-04-12 07:15:00,37.5,37.5,29.38,ESE,123,4.6,4.6,100,0.02,OVC,,0.14,19.0,WeatherDisplay:10.37,2013-04-12 06:15:00,
2013-04-12 07:20:00,37.5,37.5,29.38,ESE,123,5.8,5.8,100,0.02,OVC,,0.14,19.0,WeatherDisplay:10.37,2013-04-12 06:20:00,
2013-04-12 07:25:00,37.6,37.6,29.38,SE,136,3.5,3.5,100,0.03,RA,,0.15,19.0,WeatherDisplay:10.37,2013-04-12 06:25:00,
2013-04-12 07:30:00,37.6,37.6,29.38,SE,131,6.0,6.0,100,0.03,RA,,0.15,19.0,WeatherDisplay:10.37,2013-04-12 06:30:00,
2013-04-12 07:35:00,37.6,37.6,29.39,SSE,162,5.0,5.0,100,0.02,OVC,,0.15,19.0,WeatherDisplay:10.37,2013-04-12 06:35:00,
2013-04-12 07:40:00,37.6,37.6,29.39,ESE,120,3.5,3.5,100,0.02,OVC,,0.15,16.0,WeatherDisplay:10.37,2013-04-12 06:40:00,
2013-04-12 07:45:00,37.6,37.6,29.39,ESE,119,3.5,3.5,100,0.02,OVC,,0.15,18.0,WeatherDisplay:10.37,2013-04-12 06:45:00,
2013-04-12 07:50:00,37.8,37.8,29.39,SSW,202,3.5,3.5,100,0.03,RA,,0.16,19.0,WeatherDisplay:10.37,2013-04-12 06:50:00,
2013-04-12 07:55:00,37.8,37.8,29.39,SSW,209,3.5,3.5,100,0.02,RA,,0.16,28.0,WeatherDisplay:10.37,2013-04-12 06:55:00,
2013-04-12 08:00:00,37.9,37.9,29.39,SE,130,2.3,2.3,100,0.02,OVC,,0.16,28.0,WeatherDisplay:10.37,2013-04-12 07:00:00,
2013-04-12 08:05:00,37.9,37.9,29.39,ESE,117,2.3,3.2,100,0.02,OVC,,0.16,28.0,WeatherDisplay:10.37,2013-04-12 07:05:00,
2013-04-12 08:10:00,38.0,38.0,29.39,SE,133,2.3,2.3,100,0.02,OVC,,0.16,30.0,WeatherDisplay:10.37,2013-04-12 07:10:00,
2013-04-12 08:15:00,38.0,38.0,29.39,SE,127,5.8,5.8,100,0.02,OVC,,0.16,28.0,WeatherDisplay:10.37,2013-04-12 07:15:00,
2013-04-12 08:20:00,38.2,38.2,29.40,SE,124,4.6,4.6,100,0.02,OVC,,0.16,35.0,WeatherDisplay:10.37,2013-04-12 07:20:00,
2013-04-12 08:25:00,38.2,38.2,29.40,SE,144,3.5,3.5,100,0.02,RA,,0.17,32.0,WeatherDisplay:10.37,2013-04-12 07:25:00,
2013-04-12 08:30:00,38.2,38.2,29.40,SSE,167,3.5,3.5,100,0.02,RA,,0.17,39.0,WeatherDisplay:10.37,2013-04-12 07:30:00,
2013-04-12 08:35:00,38.3,38.3,29.40,ESE,112,4.6,4.6,100,0.02,OVC,,0.17,39.0,WeatherDisplay:10.37,2013-04-12 07:35:00,
2013-04-12 08:40:00,38.3,38.3,29.40,SE,131,4.6,4.6,100,0.02,OVC,,0.17,33.0,WeatherDisplay:10.37,2013-04-12 07:40:00,
2013-04-12 08:46:00,38.3,38.3,29.40,SSE,147,4.6,4.6,100,0.02,OVC,,0.17,39.0,WeatherDisplay:10.37,2013-04-12 07:46:00,
2013-04-12 08:51:00,38.5,38.5,29.40,SSE,148,4.6,4.6,100,0.01,OVC,,0.17,40.0,WeatherDisplay:10.37,2013-04-12 07:51:00,
2013-04-12 08:56:00,38.5,38.5,29.40,SE,138,5.8,5.8,100,0.01,OVC,,0.17,42.0,WeatherDisplay:10.37,2013-04-12 07:56:00,
2013-04-12 09:01:00,38.6,38.6,29.41,SE,136,4.6,4.6,100,0.01,OVC,,0.17,39.0,WeatherDisplay:10.37,2013-04-12 08:01:00,
2013-04-12 09:06:00,38.6,38.6,29.41,ESE,114,5.8,5.8,100,0.02,RA,,0.18,39.0,WeatherDisplay:10.37,2013-04-12 08:06:00,
2013-04-12 09:12:00,38.8,38.8,29.41,SE,137,4.6,4.6,100,0.02,RA,,0.18,42.0,WeatherDisplay:10.37,2013-04-12 08:12:00,
2013-04-12 09:17:00,38.8,38.8,29.41,ESE,116,3.5,3.5,100,0.02,OVC,,0.18,46.0,WeatherDisplay:10.37,2013-04-12 08:17:00,
2013-04-12 09:22:00,38.9,38.9,29.41,SE,131,3.5,3.5,100,0.01,OVC,,0.18,37.0,WeatherDisplay:10.37,2013-04-12 08:22:00,
2013-04-12 09:27:00,38.9,38.9,29.41,SSE,148,3.5,3.5,100,0.01,OVC,,0.18,46.0,WeatherDisplay:10.37,2013-04-12 08:27:00,
2013-04-12 09:32:00,39.1,39.1,29.41,SSE,162,4.6,4.6,100,0.01,OVC,,0.18,58.0,WeatherDisplay:10.37,2013-04-12 08:32:00,
2013-04-12 09:38:00,39.1,39.1,29.41,SE,128,5.8,5.8,100,0.01,OVC,,0.18,60.0,WeatherDisplay:10.37,2013-04-12 08:38:00,
2013-04-12 09:43:00,39.2,39.2,29.41,ESE,109,5.0,5.0,100,0.01,OVC,,0.18,63.0,WeatherDisplay:10.37,2013-04-12 08:43:00,
2013-04-12 09:48:00,39.3,39.3,29.41,SE,131,4.6,4.6,100,0.01,OVC,,0.18,67.0,WeatherDisplay:10.37,2013-04-12 08:48:00,
2013-04-12 09:53:00,39.3,39.3,29.41,ESE,116,3.5,3.5,100,0.01,OVC,,0.18,77.0,WeatherDisplay:10.37,2013-04-12 08:53:00,
2013-04-12 09:58:00,39.5,39.5,29.42,SE,131,3.5,3.5,100,0.01,OVC,,0.18,79.0,WeatherDisplay:10.37,2013-04-12 08:58:00,
2013-04-12 10:04:00,39.5,39.5,29.42,ESE,121,4.6,4.6,100,0.01,OVC,,0.18,72.0,WeatherDisplay:10.37,2013-04-12 09:04:00,
2013-04-12 10:09:00,39.6,39.6,29.42,ESE,119,2.3,2.3,100,0.00,OVC,,0.18,65.0,WeatherDisplay:10.37,2013-04-12 09:09:00,
2013-04-12 10:14:00,39.6,39.6,29.42,SE,126,4.6,4.6,100,0.00,OVC,,0.18,74.0,WeatherDisplay:10.37,2013-04-12 09:14:00,
2013-04-12 10:19:00,39.8,39.8,29.42,SE,126,3.0,3.0,100,0.00,OVC,,0.18,77.0,WeatherDisplay:10.37,2013-04-12 09:19:00,
2013-04-12 10:24:00,39.9,39.9,29.43,SE,133,4.6,4.6,100,0.00,OVC,,0.18,76.0,WeatherDisplay:10.37,2013-04-12 09:24:00,
2013-04-12 10:29:00,39.9,39.9,29.43,SSE,150,5.8,5.8,100,0.00,OVC,,0.18,74.0,WeatherDisplay:10.37,2013-04-12 09:29:00,
2013-04-12 10:34:00,40.1,40.1,29.43,SSE,151,5.0,5.0,100,0.00,OVC,,0.18,72.0,WeatherDisplay:10.37,2013-04-12 09:34:00,
2013-04-12 10:39:00,40.1,40.1,29.43,SE,136,2.3,2.3,100,0.00,OVC,,0.18,62.0,WeatherDisplay:10.37,2013-04-12 09:39:00,
2013-04-12 10:45:00,40.2,40.2,29.43,ESE,121,3.5,3.5,100,0.01,RA,,0.19,69.0,WeatherDisplay:10.37,2013-04-12 09:45:00,
2013-04-12 10:50:00,40.2,40.2,29.43,ESE,117,3.5,3.5,100,0.01,RA,,0.19,72.0,WeatherDisplay:10.37,2013-04-12 09:50:00,
2013-04-12 10:55:00,40.2,40.2,29.44,ESE,120,3.0,3.0,100,0.01,OVC,,0.19,79.0,WeatherDisplay:10.37,2013-04-12 09:55:00,
2013-04-12 11:00:00,40.3,40.3,29.44,ESE,123,1.0,6.0,100,0.00,OVC,,0.19,77.0,WeatherDisplay:10.37,2013-04-12 10:00:00,
2013-04-12 11:05:00,40.5,40.5,29.44,ESE,113,3.5,3.5,100,0.01,OVC,,0.19,83.0,WeatherDisplay:10.37,2013-04-12 10:05:00,
2013-04-12 11:10:00,40.5,40.5,29.44,SE,126,3.5,3.5,100,0.01,OVC,,0.19,81.0,WeatherDisplay:10.37,2013-04-12 10:10:00,
2013-04-12 11:16:00,40.5,40.5,29.44,SSE,154,4.6,4.6,100,0.01,OVC,,0.19,69.0,WeatherDisplay:10.37,2013-04-12 10:16:00,
2013-04-12 11:21:00,40.6,40.6,29.44,SE,131,3.5,3.5,100,0.01,OVC,,0.19,67.0,WeatherDisplay:10.37,2013-04-12 10:21:00,
2013-04-12 11:26:00,40.6,40.6,29.44,SE,141,3.5,3.5,100,0.01,OVC,,0.19,81.0,WeatherDisplay:10.37,2013-04-12 10:26:00,
2013-04-12 11:32:00,40.6,40.6,29.44,ESE,120,4.6,4.6,100,0.01,OVC,,0.19,95.0,WeatherDisplay:10.37,2013-04-12 10:32:00,
2013-04-12 11:37:00,40.8,40.8,29.44,SE,124,3.5,3.5,100,0.02,RA,,0.20,114.0,WeatherDisplay:10.37,2013-04-12 10:37:00,
2013-04-12 11:43:00,41.1,41.1,29.44,SE,127,1.2,1.2,100,0.01,RA,,0.20,120.0,WeatherDisplay:10.37,2013-04-12 10:43:00,
2013-04-12 11:48:00,41.3,41.3,29.44,ESE,119,2.3,2.3,100,0.01,OVC,,0.20,123.0,WeatherDisplay:10.37,2013-04-12 10:48:00,
2013-04-12 11:53:00,41.3,41.3,29.44,ESE,102,4.6,4.6,100,0.01,OVC,,0.20,132.0,WeatherDisplay:10.37,2013-04-12 10:53:00,
2013-04-12 11:58:00,41.3,41.3,29.44,ESE,116,1.2,1.2,100,0.01,OVC,,0.20,137.0,WeatherDisplay:10.37,2013-04-12 10:58:00,
2013-04-12 12:03:00,41.3,41.3,29.44,ESE,113,2.3,2.3,100,0.01,OVC,,0.20,143.0,WeatherDisplay:10.37,2013-04-12 11:03:00,
2013-04-12 12:08:00,41.6,41.6,29.44,SE,137,3.5,3.5,100,0.01,OVC,,0.20,139.0,WeatherDisplay:10.37,2013-04-12 11:08:00,
2013-04-12 12:13:00,41.8,41.8,29.45,ESE,114,5.8,5.8,100,0.01,OVC,,0.20,130.0,WeatherDisplay:10.37,2013-04-12 11:13:00,
2013-04-12 12:18:00,41.8,41.8,29.45,SSW,202,3.5,3.5,100,0.01,OVC,,0.20,118.0,WeatherDisplay:10.37,2013-04-12 11:18:00,
2013-04-12 12:23:00,41.9,41.9,29.45,SSW,206,4.6,4.6,100,0.01,OVC,,0.20,146.0,WeatherDisplay:10.37,2013-04-12 11:23:00,
2013-04-12 12:28:00,41.9,41.9,29.45,SSW,206,4.6,4.6,100,0.01,OVC,,0.20,130.0,WeatherDisplay:10.37,2013-04-12 11:28:00,
2013-04-12 12:33:00,41.9,41.9,29.45,NNW,347,3.5,3.5,100,0.01,OVC,,0.20,107.0,WeatherDisplay:10.37,2013-04-12 11:33:00,
2013-04-12 12:39:00,42.2,42.2,29.45,SSW,199,1.2,1.2,100,0.00,OVC,,0.20,100.0,WeatherDisplay:10.37,2013-04-12 11:39:00,
2013-04-12 12:44:00,42.3,42.3,29.46,NNW,342,1.2,1.2,100,0.00,OVC,,0.20,102.0,WeatherDisplay:10.37,2013-04-12 11:44:00,
2013-04-12 12:49:00,42.5,42.5,29.46,SSW,206,3.5,3.5,100,0.00,OVC,,0.20,123.0,WeatherDisplay:10.37,2013-04-12 11:49:00,
2013-04-12 12:54:00,42.5,42.5,29.46,SSW,208,2.3,2.3,100,0.00,OVC,,0.20,141.0,WeatherDisplay:10.37,2013-04-12 11:54:00,
2013-04-12 12:59:00,42.6,42.6,29.46,South,186,2.3,2.3,100,0.00,OVC,,0.20,134.0,WeatherDisplay:10.37,2013-04-12 11:59:00,
2013-04-12 13:04:00,42.8,42.8,29.46,SSW,192,4.6,4.6,100,0.00,OVC,,0.20,130.0,WeatherDisplay:10.37,2013-04-12 12:04:00,
2013-04-12 13:10:00,42.9,42.9,29.46,South,172,1.2,1.2,100,0.00,OVC,,0.20,121.0,WeatherDisplay:10.37,2013-04-12 12:10:00,
2013-04-12 13:15:00,43.0,43.0,29.46,South,181,1.0,5.0,100,0.00,OVC,,0.20,171.0,WeatherDisplay:10.37,2013-04-12 12:15:00,
2013-04-12 13:20:00,43.3,43.3,29.46,South,176,5.0,5.0,100,0.00,OVC,,0.20,169.0,WeatherDisplay:10.37,2013-04-12 12:20:00,
2013-04-12 13:25:00,43.5,43.5,29.46,SSE,161,4.6,4.6,100,0.00,OVC,,0.20,157.0,WeatherDisplay:10.37,2013-04-12 12:25:00,
2013-04-12 13:31:00,43.3,43.3,29.47,SSE,168,3.5,0.0,100,0.00,OVC,,0.20,188.0,WeatherDisplay:10.37,2013-04-12 12:31:00,
2013-04-12 13:37:00,43.8,43.8,29.47,SSE,168,3.0,3.0,100,0.00,OVC,,0.20,188.0,WeatherDisplay:10.37,2013-04-12 12:37:00,
2013-04-12 13:42:00,44.1,44.1,29.47,South,185,4.6,4.6,100,0.00,OVC,,0.20,158.0,WeatherDisplay:10.37,2013-04-12 12:42:00,
2013-04-12 13:47:00,43.6,43.6,29.47,SSW,193,3.5,3.5,100,0.00,OVC,,0.20,199.0,WeatherDisplay:10.37,2013-04-12 12:47:00,
2013-04-12 13:52:00,44.1,44.1,29.47,South,188,4.6,4.6,100,0.00,OVC,,0.20,225.0,WeatherDisplay:10.37,2013-04-12 12:52:00,
2013-04-12 13:57:00,44.5,44.5,29.47,South,179,3.5,3.5,100,0.00,OVC,,0.20,225.0,WeatherDisplay:10.37,2013-04-12 12:57:00,
2013-04-12 14:03:00,44.5,44.5,29.47,South,186,4.6,4.6,100,0.00,OVC,,0.20,232.0,WeatherDisplay:10.37,2013-04-12 13:03:00,
2013-04-12 14:08:00,44.3,44.3,29.47,South,175,3.5,3.5,100,0.00,OVC,,0.20,236.0,WeatherDisplay:10.37,2013-04-12 13:08:00,
2013-04-12 14:13:00,44.5,44.5,29.47,South,174,3.5,3.5,100,0.00,OVC,,0.20,209.0,WeatherDisplay:10.37,2013-04-12 13:13:00,
2013-04-12 14:18:00,44.6,44.6,29.48,South,179,3.5,3.5,100,0.00,OVC,,0.20,178.0,WeatherDisplay:10.37,2013-04-12 13:18:00,
2013-04-12 14:23:00,44.5,44.5,29.48,South,169,2.3,0.0,100,0.00,OVC,,0.20,167.0,WeatherDisplay:10.37,2013-04-12 13:23:00,
2013-04-12 14:28:00,44.6,44.6,29.48,South,178,2.3,2.3,100,0.00,OVC,,0.20,134.0,WeatherDisplay:10.37,2013-04-12 13:28:00,
2013-04-12 14:33:00,44.6,44.6,29.48,SSE,151,2.3,2.3,100,0.00,OVC,,0.20,125.0,WeatherDisplay:10.37,2013-04-12 13:33:00,
2013-04-12 14:38:00,44.8,44.8,29.48,South,169,3.0,3.0,100,0.01,RA,,0.21,104.0,WeatherDisplay:10.37,2013-04-12 13:38:00,
2013-04-12 14:43:00,44.6,44.6,29.48,South,169,2.3,2.3,100,0.01,RA,,0.21,97.0,WeatherDisplay:10.37,2013-04-12 13:43:00,
2013-04-12 14:49:00,44.5,44.5,29.49,NNW,339,1.2,1.2,100,0.01,OVC,,0.21,86.0,WeatherDisplay:10.37,2013-04-12 13:49:00,
2013-04-12 14:54:00,44.5,44.5,29.49,SW,217,2.3,2.3,100,0.01,OVC,,0.21,77.0,WeatherDisplay:10.37,2013-04-12 13:54:00,
2013-04-12 14:59:00,44.3,44.3,29.49,NNW,342,1.2,1.2,100,0.02,RA,,0.22,69.0,WeatherDisplay:10.37,2013-04-12 13:59:00,
2013-04-12 15:04:00,44.3,44.3,29.49,North,350,0.0,0.1,100,0.02,RA,,0.22,77.0,WeatherDisplay:10.37,2013-04-12 14:04:00,
2013-04-12 15:09:00,44.2,44.2,29.49,NNW,344,0.0,0.0,100,0.02,OVC,,0.22,79.0,WeatherDisplay:10.37,2013-04-12 14:09:00,
2013-04-12 15:14:00,44.2,44.2,29.49,North,350,0.0,0.0,100,0.03,RA,,0.23,72.0,WeatherDisplay:10.37,2013-04-12 14:14:00,
2013-04-12 15:19:00,44.2,44.2,29.50,North,0,2.3,2.3,100,0.03,RA,,0.23,86.0,WeatherDisplay:10.37,2013-04-12 14:19:00,
2013-04-12 15:24:00,44.5,44.5,29.50,SSE,147,2.3,2.3,100,0.04,RA,,0.24,134.0,WeatherDisplay:10.37,2013-04-12 14:24:00,
2013-04-12 15:29:00,44.3,44.3,29.50,SE,134,2.3,2.3,100,0.04,RA,,0.24,148.0,WeatherDisplay:10.37,2013-04-12 14:29:00,
2013-04-12 15:34:00,44.3,44.3,29.50,SE,141,0.0,0.0,100,0.05,RA,,0.25,127.0,WeatherDisplay:10.37,2013-04-12 14:34:00,
2013-04-12 15:40:00,44.2,44.2,29.50,NNW,344,1.2,1.2,100,0.04,RA,,0.25,90.0,WeatherDisplay:10.37,2013-04-12 14:40:00,
2013-04-12 15:45:00,44.3,44.3,29.50,North,349,0.0,0.0,100,0.04,OVC,,0.25,81.0,WeatherDisplay:10.37,2013-04-12 14:45:00,
2013-04-12 15:50:00,44.3,44.3,29.50,NNW,346,1.2,1.2,100,0.04,OVC,,0.25,81.0,WeatherDisplay:10.37,2013-04-12 14:50:00,
2013-04-12 15:55:00,44.1,44.1,29.50,North,354,1.0,1.0,100,0.04,OVC,,0.25,70.0,WeatherDisplay:10.37,2013-04-12 14:55:00,
2013-04-12 16:00:00,44.2,44.2,29.50,NE,54,0.0,3.0,100,0.00,OVC,,0.25,74.0,WeatherDisplay:10.37,2013-04-12 15:00:00,
2013-04-12 16:05:00,44.2,44.2,29.51,SE,136,2.3,2.3,100,0.03,OVC,,0.25,63.0,WeatherDisplay:10.37,2013-04-12 15:05:00,
2013-04-12 16:10:00,44.2,44.2,29.51,SSE,148,0.0,0.0,100,0.04,RA,,0.26,60.0,WeatherDisplay:10.37,2013-04-12 15:10:00,
2013-04-12 16:15:00,44.2,44.2,29.51,SE,138,1.0,1.0,100,0.03,RA,,0.26,63.0,WeatherDisplay:10.37,2013-04-12 15:15:00,
2013-04-12 16:21:00,44.2,44.2,29.52,SE,140,0.0,0.5,100,0.03,OVC,,0.26,76.0,WeatherDisplay:10.37,2013-04-12 15:21:00,
2013-04-12 16:26:00,44.2,44.2,29.52,SSE,147,0.0,0.0,100,0.03,RA,,0.27,88.0,WeatherDisplay:10.37,2013-04-12 15:26:00,
2013-04-12 16:31:00,44.5,44.5,29.52,SSE,147,0.0,0.0,100,0.03,RA,,0.27,69.0,WeatherDisplay:10.37,2013-04-12 15:31:00,
2013-04-12 16:36:00,44.5,44.5,29.52,SE,133,2.3,2.3,100,0.03,RA,,0.28,55.0,WeatherDisplay:10.37,2013-04-12 15:36:00,
2013-04-12 16:42:00,44.2,44.2,29.52,SE,134,0.0,0.0,100,0.03,RA,,0.28,76.0,WeatherDisplay:10.37,2013-04-12 15:42:00,
2013-04-12 16:47:00,44.2,44.2,29.52,SE,131,0.0,0.0,100,0.03,OVC,,0.28,77.0,WeatherDisplay:10.37,2013-04-12 15:47:00,
2013-04-12 16:52:00,44.3,44.3,29.52,North,349,2.3,2.3,100,0.03,OVC,,0.28,63.0,WeatherDisplay:10.37,2013-04-12 15:52:00,
2013-04-12 16:57:00,44.1,44.1,29.53,NNW,332,3.5,3.5,100,0.03,OVC,,0.28,58.0,WeatherDisplay:10.37,2013-04-12 15:57:00,
2013-04-12 17:02:00,44.1,44.1,29.53,NNW,336,2.3,0.0,100,0.03,OVC,,0.28,58.0,WeatherDisplay:10.37,2013-04-12 16:02:00,
2013-04-12 17:08:00,44.1,44.1,29.53,North,356,0.0,0.1,100,0.03,OVC,,0.28,62.0,WeatherDisplay:10.37,2013-04-12 16:08:00,
2013-04-12 17:13:00,44.1,44.1,29.53,North,349,0.0,0.0,100,0.02,OVC,,0.28,42.0,WeatherDisplay:10.37,2013-04-12 16:13:00,
2013-04-12 17:18:00,44.2,44.2,29.53,NNW,330,0.0,0.0,100,0.03,RA,,0.29,37.0,WeatherDisplay:10.37,2013-04-12 16:18:00,
2013-04-12 17:23:00,44.2,44.2,29.53,SSE,167,2.3,2.3,100,0.04,RA,,0.30,32.0,WeatherDisplay:10.37,2013-04-12 16:23:00,
2013-04-12 17:28:00,44.1,44.1,29.53,South,175,2.3,2.3,100,0.03,RA,,0.30,40.0,WeatherDisplay:10.37,2013-04-12 16:28:00,
2013-04-12 17:33:00,44.1,44.1,29.54,South,172,0.0,0.0,100,0.03,OVC,,0.30,37.0,WeatherDisplay:10.37,2013-04-12 16:33:00,
2013-04-12 17:38:00,44.1,44.1,29.54,South,189,2.0,2.0,100,0.02,OVC,,0.30,53.0,WeatherDisplay:10.37,2013-04-12 16:38:00,
2013-04-12 17:43:00,44.1,44.1,29.54,South,171,0.0,0.0,100,0.02,OVC,,0.30,49.0,WeatherDisplay:10.37,2013-04-12 16:43:00,
2013-04-12 17:48:00,44.1,44.1,29.54,South,188,1.2,1.2,100,0.03,RA,,0.31,44.0,WeatherDisplay:10.37,2013-04-12 16:48:00,
2013-04-12 17:53:00,44.1,44.1,29.54,South,188,1.2,1.2,100,0.03,RA,,0.31,49.0,WeatherDisplay:10.37,2013-04-12 16:53:00,
2013-04-12 17:58:00,44.1,44.1,29.54,South,174,1.2,0.0,100,0.03,OVC,,0.31,32.0,WeatherDisplay:10.37,2013-04-12 16:58:00,
2013-04-12 18:04:00,44.1,44.1,29.54,South,174,0.0,0.0,100,0.03,OVC,,0.31,18.0,WeatherDisplay:10.37,2013-04-12 17:04:00,
2013-04-12 18:09:00,44.1,44.1,29.55,South,181,0.0,0.2,100,0.03,OVC,,0.31,14.0,WeatherDisplay:10.37,2013-04-12 17:09:00,
2013-04-12 18:14:00,43.9,43.9,29.55,South,186,0.0,0.0,100,0.04,RA,,0.32,19.0,WeatherDisplay:10.37,2013-04-12 17:14:00,
2013-04-12 18:19:00,43.9,43.9,29.55,South,172,2.3,2.3,100,0.03,RA,,0.32,18.0,WeatherDisplay:10.37,2013-04-12 17:19:00,
2013-04-12 18:24:00,43.8,43.8,29.55,South,189,2.0,2.0,100,0.02,OVC,,0.32,14.0,WeatherDisplay:10.37,2013-04-12 17:24:00,
2013-04-12 18:29:00,43.8,43.8,29.55,South,176,2.3,2.3,100,0.02,OVC,,0.32,16.0,WeatherDisplay:10.37,2013-04-12 17:29:00,
2013-04-12 18:34:00,43.6,43.6,29.55,South,181,2.3,2.3,100,0.02,OVC,,0.32,16.0,WeatherDisplay:10.37,2013-04-12 17:34:00,
2013-04-12 18:39:00,43.6,43.6,29.56,South,185,2.3,2.3,100,0.02,OVC,,0.32,16.0,WeatherDisplay:10.37,2013-04-12 17:39:00,
2013-04-12 18:44:00,43.5,43.5,29.56,South,178,2.3,2.3,100,0.02,OVC,,0.32,12.0,WeatherDisplay:10.37,2013-04-12 17:44:00,
2013-04-12 18:49:00,43.5,43.5,29.56,South,184,2.3,2.3,100,0.02,RA,,0.33,12.0,WeatherDisplay:10.37,2013-04-12 17:49:00,
2013-04-12 18:55:00,43.5,43.5,29.56,South,181,2.3,2.3,100,0.02,RA,,0.33,12.0,WeatherDisplay:10.37,2013-04-12 17:55:00,
2013-04-12 19:00:00,43.3,43.3,29.57,South,169,3.0,3.0,100,0.02,OVC,,0.33,12.0,WeatherDisplay:10.37,2013-04-12 18:00:00,
2013-04-12 19:05:00,43.3,43.3,29.57,South,182,2.3,2.3,100,0.03,RA,,0.34,14.0,WeatherDisplay:10.37,2013-04-12 18:05:00,
2013-04-12 19:10:00,43.3,43.3,29.57,South,171,2.3,2.3,100,0.03,RA,,0.34,16.0,WeatherDisplay:10.37,2013-04-12 18:10:00,
2013-04-12 19:16:00,43.2,43.2,29.57,South,175,3.5,3.5,100,0.02,OVC,,0.34,18.0,WeatherDisplay:10.37,2013-04-12 18:16:00,
2013-04-12 19:22:00,43.2,43.2,29.57,South,185,2.0,2.0,100,0.02,OVC,,0.34,14.0,WeatherDisplay:10.37,2013-04-12 18:22:00,
2013-04-12 19:27:00,43.2,43.2,29.57,South,188,3.5,3.5,100,0.02,OVC,,0.34,11.0,WeatherDisplay:10.37,2013-04-12 18:27:00,
2013-04-12 20:26:00,42.5,42.5,29.59,South,189,0.0,0.2,100,0.01,OVC,,0.35,0.0,WeatherDisplay:10.37,2013-04-12 19:26:00,
2013-04-12 20:27:00,42.5,42.5,29.59,South,178,2.3,2.3,100,0.01,OVC,,0.35,0.0,WeatherDisplay:10.37,2013-04-12 19:27:00,
2013-04-12 20:28:00,42.5,42.5,29.59,South,186,2.3,2.3,100,0.01,OVC,,0.35,0.0,WeatherDisplay:10.37,2013-04-12 19:28:00,
2013-04-12 20:30:00,42.5,42.5,29.60,South,184,1.0,2.0,100,0.00,OVC,,0.35,0.0,WeatherDisplay:10.37,2013-04-12 19:30:00,
2013-04-12 20:35:00,42.3,42.3,29.60,South,191,0.0,0.0,100,0.01,OVC,,0.35,0.0,WeatherDisplay:10.37,2013-04-12 19:35:00,
2013-04-12 20:40:00,42.3,42.3,29.60,South,186,0.0,0.0,100,0.00,OVC,,0.35,0.0,WeatherDisplay:10.37,2013-04-12 19:40:00,
2013-04-12 20:45:00,42.2,42.2,29.60,South,182,0.0,0.0,100,0.00,OVC,,0.35,0.0,WeatherDisplay:10.37,2013-04-12 19:45:00,
2013-04-12 20:51:00,42.2,42.2,29.60,South,182,1.2,0.0,100,0.00,CLR,,0.35,0.0,WeatherDisplay:10.37,2013-04-12 19:51:00,
2013-04-12 20:56:00,42.2,42.2,29.60,South,176,1.2,0.0,100,0.00,CLR,,0.35,0.0,WeatherDisplay:10.37,2013-04-12 19:56:00,
2013-04-12 21:01:00,42.1,42.1,29.60,SSW,196,1.2,1.2,100,0.00,CLR,,0.35,0.0,WeatherDisplay:10.37,2013-04-12 20:01:00,
2013-04-12 21:06:00,42.1,42.1,29.60,South,182,1.0,1.0,100,0.00,CLR,,0.35,0.0,WeatherDisplay:10.37,2013-04-12 20:06:00,
2013-04-12 21:11:00,41.9,41.9,29.60,South,176,1.2,1.2,100,0.00,CLR,,0.35,0.0,WeatherDisplay:10.37,2013-04-12 20:11:00,
2013-04-12 21:17:00,41.9,41.9,29.61,South,179,0.0,0.0,100,0.01,RA,,0.36,0.0,WeatherDisplay:10.37,2013-04-12 20:17:00,
2013-04-12 21:22:00,41.9,41.9,29.61,SSW,192,0.0,0.0,100,0.01,RA,,0.36,0.0,WeatherDisplay:10.37,2013-04-12 20:22:00,
2013-04-12 21:27:00,41.9,41.9,29.61,South,185,0.0,0.0,100,0.01,CLR,,0.36,0.0,WeatherDisplay:10.37,2013-04-12 20:27:00,
2013-04-12 21:32:00,41.9,41.9,29.61,SSW,192,1.2,1.2,100,0.01,CLR,,0.36,0.0,WeatherDisplay:10.37,2013-04-12 20:32:00,
2013-04-12 21:37:00,41.9,41.9,29.61,South,188,2.3,2.3,100,0.01,CLR,,0.36,0.0,WeatherDisplay:10.37,2013-04-12 20:37:00,
2013-04-12 21:42:00,41.8,41.8,29.61,South,184,0.0,0.0,100,0.01,CLR,,0.36,0.0,WeatherDisplay:10.37,2013-04-12 20:42:00,
2013-04-12 21:47:00,41.8,41.8,29.61,South,179,1.2,0.0,100,0.01,CLR,,0.36,0.0,WeatherDisplay:10.37,2013-04-12 20:47:00,
2013-04-12 21:52:00,41.8,41.8,29.61,South,191,2.3,2.3,100,0.01,CLR,,0.36,0.0,WeatherDisplay:10.37,2013-04-12 20:52:00,
2013-04-12 21:57:00,41.8,41.8,29.61,South,176,2.3,0.0,100,0.01,CLR,,0.36,0.0,WeatherDisplay:10.37,2013-04-12 20:57:00,
2013-04-12 22:03:00,41.8,41.8,29.61,South,174,2.3,2.3,100,0.01,CLR,,0.36,0.0,WeatherDisplay:10.37,2013-04-12 21:03:00,
2013-04-12 22:08:00,41.8,41.8,29.62,South,185,0.0,0.0,100,0.01,CLR,,0.36,0.0,WeatherDisplay:10.37,2013-04-12 21:08:00,
2013-04-12 22:13:00,41.8,41.8,29.62,South,184,2.3,2.3,100,0.00,CLR,,0.36,0.0,WeatherDisplay:10.37,2013-04-12 21:13:00,
2013-04-12 22:18:00,41.8,41.8,29.62,South,184,2.0,2.0,100,0.00,CLR,,0.36,0.0,WeatherDisplay:10.37,2013-04-12 21:18:00,
2013-04-12 22:23:00,41.8,41.8,29.62,South,186,1.2,1.2,100,0.00,CLR,,0.36,0.0,WeatherDisplay:10.37,2013-04-12 21:23:00,
2013-04-12 22:28:00,41.6,41.6,29.62,South,184,2.3,2.3,100,0.00,CLR,,0.36,0.0,WeatherDisplay:10.37,2013-04-12 21:28:00,
2013-04-12 22:33:00,41.6,41.6,29.62,South,172,3.5,3.5,100,0.00,CLR,,0.36,0.0,WeatherDisplay:10.37,2013-04-12 21:33:00,
2013-04-12 22:39:00,41.6,41.6,29.62,SSE,164,1.2,1.2,100,0.00,CLR,,0.36,0.0,WeatherDisplay:10.37,2013-04-12 21:39:00,
2013-04-12 22:44:00,41.6,41.6,29.63,SSE,164,2.3,2.3,100,0.00,CLR,,0.36,0.0,WeatherDisplay:10.37,2013-04-12 21:44:00,
2013-04-12 22:49:00,41.6,41.6,29.63,SSE,160,0.0,0.0,100,0.00,CLR,,0.36,0.0,WeatherDisplay:10.37,2013-04-12 21:49:00,
2013-04-12 22:54:00,41.5,41.5,29.63,SSE,157,0.0,0.0,100,0.00,CLR,,0.36,0.0,WeatherDisplay:10.37,2013-04-12 21:54:00,
2013-04-12 22:59:00,41.5,41.5,29.63,SSE,152,0.0,0.0,100,0.00,CLR,,0.36,0.0,WeatherDisplay:10.37,2013-04-12 21:59:00,
2013-04-12 23:04:00,41.3,41.3,29.63,SSE,155,2.3,2.3,100,0.00,CLR,,0.36,0.0,WeatherDisplay:10.37,2013-04-12 22:04:00,
2013-04-12 23:09:00,41.3,41.3,29.63,South,178,3.5,3.5,100,0.00,CLR,,0.36,0.0,WeatherDisplay:10.37,2013-04-12 22:09:00,
2013-04-12 23:14:00,41.3,41.3,29.63,South,175,2.0,2.0,100,0.00,CLR,,0.36,0.0,WeatherDisplay:10.37,2013-04-12 22:14:00,
2013-04-12 23:20:00,41.3,41.3,29.64,SSE,167,2.0,2.0,100,0.00,CLR,,0.36,0.0,WeatherDisplay:10.37,2013-04-12 22:20:00,
2013-04-12 23:25:00,41.3,41.3,29.64,South,186,1.2,1.2,100,0.00,CLR,,0.36,0.0,WeatherDisplay:10.37,2013-04-12 22:25:00,
2013-04-12 23:30:00,41.3,41.3,29.64,South,183,0.0,3.0,100,0.00,CLR,,0.36,0.0,WeatherDisplay:10.37,2013-04-12 22:30:00,
2013-04-12 23:35:00,41.3,41.3,29.64,South,182,2.3,2.3,100,0.00,CLR,,0.36,0.0,WeatherDisplay:10.37,2013-04-12 22:35:00,
2013-04-12 23:41:00,41.2,41.2,29.64,South,191,3.0,3.0,100,0.01,RA,,0.37,0.0,WeatherDisplay:10.37,2013-04-12 22:41:00,
2013-04-12 23:46:00,41.2,41.2,29.64,South,176,1.2,1.2,100,0.01,RA,,0.37,0.0,WeatherDisplay:10.37,2013-04-12 22:46:00,
2013-04-12 23:51:00,41.2,41.2,29.64,SSW,193,1.0,1.0,100,0.01,CLR,,0.37,0.0,WeatherDisplay:10.37,2013-04-12 22:51:00,
2013-04-12 23:56:00,41.2,41.2,29.65,SSE,164,1.2,0.0,100,0.01,CLR,,0.37,0.0,WeatherDisplay:10.37,2013-04-12 22:56:00,